Mentcle, Pennsylvania
Current Conditions -  °F | °C
As of 2:55 PM on Tuesday 21 Oct 2014 (Local Time) from KIDI Reporting Station
Broken Clouds Broken Clouds  
Wind Chill: 52°   Ceiling: 3500
Heat Index: 52°   Visibility: 10mi
Dew Point: 45°   Wind: 13mph
Humidity: 76%   Direction: 340°NNW
Pressure: 29.89"   Gusts: NA
Location:  40.64°N, 78.88°W
Report Text: KIDI 211855Z AUTO 34011KT 10SM FEW017 SCT023 BKN035 11/07 A2989 RMK A01
Loading
Personal Weather Stations






























Interactive Weather Map
Tropical Storm Tracking
New forecast layout! Learn more

10-Day Weather Forecast

Advertisements
Track Severe Weather on mobile